createdAt,value
2018-01-25T00:02:15.612Z,4.03
2018-01-25T00:04:42.872Z,3.30
2018-01-25T00:07:10.136Z,4.50
2018-01-25T00:09:37.407Z,2.83
2018-01-25T00:12:04.681Z,7.13
2018-01-25T00:14:31.932Z,3.30
2018-01-25T00:16:59.191Z,2.80
2018-01-25T00:22:00.058Z,2.70
2018-01-25T00:24:27.304Z,2.57
2018-01-25T00:26:54.572Z,5.10
2018-01-25T00:29:21.824Z,2.70
2018-01-25T00:31:50.106Z,1.90
2018-01-25T00:34:17.358Z,4.20
2018-01-25T00:36:44.625Z,2.40
2018-01-25T00:39:11.883Z,2.10
2018-01-25T00:41:39.136Z,4.73
2018-01-25T00:44:06.398Z,3.40
2018-01-25T00:46:33.651Z,3.03
2018-01-25T00:49:00.919Z,2.90
2018-01-25T00:51:28.176Z,3.67
2018-01-25T00:53:55.447Z,4.90
2018-01-25T00:56:22.696Z,3.87
2018-01-25T00:58:49.968Z,3.40
2018-01-25T01:01:17.225Z,3.97
2018-01-25T01:03:44.484Z,6.60
2018-01-25T01:06:11.741Z,3.83
2018-01-25T01:08:39.010Z,2.60
2018-01-25T01:11:06.266Z,4.97
2018-01-25T01:13:33.524Z,3.57
2018-01-25T01:16:00.771Z,4.33
2018-01-25T01:18:28.039Z,2.40
2018-01-25T01:20:55.296Z,4.17
2018-01-25T01:23:22.551Z,3.60
2018-01-25T01:25:49.812Z,5.23
2018-01-25T01:28:17.068Z,3.83
2018-01-25T01:30:44.345Z,3.50
2018-01-25T01:33:11.605Z,4.60
2018-01-25T01:35:38.860Z,4.43
2018-01-25T01:38:06.115Z,4.70
2018-01-25T01:40:33.377Z,5.10
2018-01-25T01:43:00.630Z,4.90
2018-01-25T01:45:27.894Z,3.60
2018-01-25T01:47:55.147Z,4.90
2018-01-25T01:50:22.411Z,3.90
2018-01-25T01:52:49.656Z,3.30
2018-01-25T01:55:16.919Z,3.60
2018-01-25T01:57:44.167Z,6.20
2018-01-25T02:00:11.432Z,5.80
2018-01-25T02:02:38.685Z,4.00
2018-01-25T02:05:05.943Z,6.30
2018-01-25T02:07:33.192Z,6.13
2018-01-25T02:10:00.456Z,8.10
2018-01-25T02:12:27.709Z,5.73
2018-01-25T02:14:54.972Z,7.10
2018-01-25T02:17:22.227Z,9.90
2018-01-25T02:19:49.467Z,7.43
2018-01-25T02:22:16.732Z,5.53
2018-01-25T02:24:43.995Z,6.00
2018-01-25T02:27:11.256Z,6.40
2018-01-25T02:29:38.503Z,5.80
2018-01-25T02:32:05.797Z,7.03
2018-01-25T02:34:33.056Z,7.27
2018-01-25T02:37:00.317Z,6.40
2018-01-25T02:39:27.565Z,5.13
2018-01-25T02:41:54.838Z,6.30
2018-01-25T02:44:22.095Z,7.80
2018-01-25T02:46:49.358Z,9.30
2018-01-25T02:49:16.604Z,7.20
2018-01-25T02:51:43.874Z,5.27
2018-01-25T02:54:11.115Z,6.90
2018-01-25T02:56:38.387Z,5.30
2018-01-25T02:59:05.641Z,8.00
2018-01-25T03:01:32.881Z,5.93
2018-01-25T03:04:00.148Z,7.40
2018-01-25T03:06:27.393Z,8.50
2018-01-25T03:08:54.656Z,6.33
2018-01-25T03:11:21.906Z,7.10
2018-01-25T03:13:49.173Z,9.83
2018-01-25T03:16:16.433Z,6.57
2018-01-25T03:18:43.692Z,6.70
2018-01-25T03:21:10.950Z,8.53
2018-01-25T03:23:38.207Z,7.00
2018-01-25T03:26:05.455Z,7.00
2018-01-25T03:28:32.724Z,7.10
2018-01-25T03:30:59.972Z,6.70
2018-01-25T03:33:27.235Z,5.73
2018-01-25T03:35:54.488Z,9.73
2018-01-25T03:38:21.752Z,9.03
2018-01-25T03:40:49.000Z,8.10
2018-01-25T03:43:16.260Z,5.60
2018-01-25T03:45:43.511Z,8.27
2018-01-25T03:48:10.777Z,8.20
2018-01-25T03:50:38.032Z,8.93
2018-01-25T03:53:05.311Z,15.33
2018-01-25T03:55:32.565Z,10.87
2018-01-25T03:57:59.814Z,9.33
2018-01-25T04:00:27.075Z,8.20
2018-01-25T04:02:54.326Z,7.43
2018-01-25T04:05:21.596Z,5.67
2018-01-25T04:07:48.840Z,5.70
2018-01-25T04:10:16.114Z,5.93
2018-01-25T04:12:43.368Z,13.17
2018-01-25T04:15:10.639Z,9.40
2018-01-25T04:17:37.887Z,8.80
2018-01-25T04:20:05.156Z,6.27
2018-01-25T04:22:32.409Z,6.90
2018-01-25T04:24:59.684Z,10.27
2018-01-25T04:27:26.933Z,7.13
2018-01-25T04:29:54.201Z,7.43
2018-01-25T04:32:21.449Z,6.70
2018-01-25T04:34:48.721Z,6.50
2018-01-25T04:37:15.980Z,7.20
2018-01-25T04:39:43.253Z,7.87
2018-01-25T04:42:10.507Z,7.13
2018-01-25T04:44:37.796Z,8.17
2018-01-25T04:47:05.071Z,5.73
2018-01-25T04:49:32.326Z,5.93
2018-01-25T04:51:59.587Z,10.83
2018-01-25T04:54:26.841Z,6.93
2018-01-25T04:56:54.108Z,7.37
2018-01-25T04:59:21.352Z,5.10
2018-01-25T05:01:48.615Z,5.40
2018-01-25T05:04:15.863Z,5.63
2018-01-25T05:06:43.132Z,6.00
2018-01-25T05:09:10.389Z,6.23
2018-01-25T05:11:37.648Z,9.93
2018-01-25T05:14:04.904Z,8.10
2018-01-25T05:16:32.168Z,7.83
2018-01-25T05:18:59.420Z,6.17
2018-01-25T05:21:26.691Z,6.07
2018-01-25T05:23:53.944Z,6.10
2018-01-25T05:26:21.213Z,6.90
2018-01-25T05:28:48.465Z,5.37
2018-01-25T05:31:15.716Z,5.07
2018-01-25T05:33:42.979Z,8.20
2018-01-25T05:36:10.227Z,8.67
2018-01-25T05:38:37.504Z,10.33
2018-01-25T05:41:04.756Z,7.40
2018-01-25T05:43:32.023Z,7.60
2018-01-25T05:45:59.271Z,7.63
2018-01-25T05:48:26.537Z,6.97
2018-01-25T05:50:53.780Z,6.67
2018-01-25T05:53:21.054Z,9.02
2018-01-25T05:55:48.306Z,7.03
2018-01-25T05:58:15.580Z,10.93
2018-01-25T06:06:05.543Z,7.50
2018-01-25T06:08:32.817Z,8.50
2018-01-25T06:11:00.059Z,6.87
2018-01-25T06:13:27.324Z,7.60
2018-01-25T06:15:54.747Z,10.20
2018-01-25T06:18:22.028Z,8.03
2018-01-25T06:20:49.462Z,6.50
2018-01-25T06:23:16.710Z,7.80
2018-01-25T06:25:44.068Z,10.67
2018-01-25T06:28:11.354Z,6.60
2018-01-25T06:30:38.676Z,6.10
2018-01-25T06:33:05.957Z,7.17
2018-01-25T06:35:33.210Z,8.10
2018-01-25T06:38:00.488Z,7.10
2018-01-25T06:40:27.737Z,10.67
2018-01-25T06:42:55.053Z,11.23
2018-01-25T06:45:22.291Z,11.60
2018-01-25T06:47:49.544Z,8.37
2018-01-25T06:50:16.816Z,7.77
2018-01-25T06:52:44.070Z,7.27
2018-01-25T06:55:11.332Z,13.43
2018-01-25T06:57:38.580Z,8.67
2018-01-25T07:00:05.929Z,8.57
2018-01-25T07:02:33.173Z,8.47
2018-01-25T07:05:00.440Z,7.93
2018-01-25T07:07:27.691Z,13.10
2018-01-25T07:09:54.956Z,11.90
2018-01-25T07:12:22.221Z,7.40
2018-01-25T07:14:49.544Z,11.23
2018-01-25T07:17:16.811Z,8.87
2018-01-25T07:19:44.068Z,12.93
2018-01-25T07:22:11.349Z,13.43
2018-01-25T07:24:38.661Z,12.53
2018-01-25T07:27:05.928Z,7.70
2018-01-25T07:29:33.167Z,9.23
2018-01-25T07:32:00.444Z,12.00
2018-01-25T07:34:27.697Z,9.03
2018-01-25T07:36:54.959Z,8.40
2018-01-25T07:39:22.309Z,8.80
2018-01-25T07:41:49.577Z,8.40
2018-01-25T07:44:16.845Z,7.23
2018-01-25T07:46:44.123Z,8.50
2018-01-25T07:49:11.364Z,8.77
2018-01-25T07:51:38.640Z,10.33
2018-01-25T07:54:05.888Z,8.07
2018-01-25T07:56:33.152Z,9.53
2018-01-25T07:59:00.409Z,12.23
2018-01-25T08:01:27.664Z,10.20
2018-01-25T08:03:54.932Z,8.73
2018-01-25T08:06:22.183Z,10.10
2018-01-25T08:08:49.456Z,8.33
2018-01-25T08:11:16.709Z,10.70
2018-01-25T08:13:44.040Z,13.77
2018-01-25T08:16:16.940Z,8.40
2018-01-25T08:18:44.200Z,7.53
2018-01-25T08:21:11.476Z,11.50
2018-01-25T08:23:38.744Z,18.70
2018-01-25T08:26:05.995Z,7.50
2018-01-25T08:28:33.280Z,13.53
2018-01-25T08:31:00.540Z,11.70
2018-01-25T08:33:27.808Z,11.37
2018-01-25T08:35:55.064Z,8.23
2018-01-25T08:38:22.348Z,10.67
2018-01-25T08:40:49.605Z,11.50
2018-01-25T08:43:16.888Z,10.47
2018-01-25T08:45:44.149Z,11.10
2018-01-25T08:48:11.414Z,9.03
2018-01-25T08:50:38.684Z,9.63
2018-01-25T08:53:05.933Z,9.77
2018-01-25T08:55:33.210Z,10.13
2018-01-25T08:58:00.532Z,12.20
2018-01-25T09:00:27.809Z,8.70
2018-01-25T09:02:55.148Z,10.03
2018-01-25T09:05:22.419Z,9.63
2018-01-25T09:07:49.680Z,12.33
2018-01-25T09:10:17.215Z,10.30
2018-01-25T09:12:44.567Z,14.90
2018-01-25T09:15:11.831Z,8.23
2018-01-25T09:17:39.107Z,11.90
2018-01-25T09:20:06.364Z,12.53
2018-01-25T09:22:33.616Z,8.00
2018-01-25T09:25:00.884Z,10.67
2018-01-25T09:27:28.140Z,11.40
2018-01-25T09:29:55.420Z,10.27
2018-01-25T09:32:22.704Z,9.10
2018-01-25T09:34:49.923Z,10.47
2018-01-25T09:37:17.199Z,8.27
2018-01-25T09:39:44.444Z,7.80
2018-01-25T09:42:11.712Z,9.17
2018-01-25T09:44:38.960Z,7.60
2018-01-25T09:47:06.232Z,7.97
2018-01-25T09:49:33.477Z,6.20
2018-01-25T09:52:00.743Z,10.33
2018-01-25T09:54:28.008Z,8.00
2018-01-25T09:56:55.268Z,5.60
2018-01-25T09:59:22.525Z,12.03
2018-01-25T10:01:49.796Z,5.60
2018-01-25T10:04:17.048Z,6.27
2018-01-25T10:06:44.340Z,8.20
2018-01-25T10:09:11.596Z,7.10
2018-01-25T10:11:38.860Z,6.57
2018-01-25T10:14:06.204Z,8.87
2018-01-25T10:16:33.468Z,7.30
2018-01-25T10:19:00.725Z,7.40
2018-01-25T10:21:28.104Z,7.03
2018-01-25T10:23:55.393Z,6.80
2018-01-25T10:26:22.627Z,9.60
2018-01-25T10:28:49.896Z,9.23
2018-01-25T10:31:17.147Z,6.30
2018-01-25T10:33:44.443Z,9.20
2018-01-25T10:36:11.692Z,8.23
2018-01-25T10:38:38.956Z,6.33
2018-01-25T10:41:06.204Z,7.40
2018-01-25T10:43:33.476Z,10.00
2018-01-25T10:46:00.737Z,11.07
2018-01-25T10:48:28.008Z,7.17
2018-01-25T10:50:55.311Z,7.47
2018-01-25T10:53:22.580Z,6.10
2018-01-25T10:55:49.937Z,5.23
2018-01-25T10:58:17.189Z,5.00
2018-01-25T11:00:50.180Z,7.20
2018-01-25T11:03:17.441Z,4.27
2018-01-25T11:05:44.779Z,5.40
2018-01-25T11:08:12.021Z,7.20
2018-01-25T11:10:39.294Z,5.03
2018-01-25T11:13:06.536Z,5.30
2018-01-25T11:15:33.808Z,6.27
2018-01-25T11:18:01.964Z,5.60
2018-01-25T11:20:29.237Z,4.77
2018-01-25T11:22:56.485Z,4.47
2018-01-25T11:25:23.751Z,4.80
2018-01-25T11:27:51.181Z,5.13
2018-01-25T11:30:18.448Z,5.07
2018-01-25T11:32:45.701Z,5.67
2018-01-25T11:35:12.941Z,4.67
2018-01-25T11:37:40.208Z,4.87
2018-01-25T11:40:08.664Z,4.63
2018-01-25T11:42:36.129Z,8.20
2018-01-25T11:45:03.378Z,3.77
2018-01-25T11:47:30.744Z,11.30
2018-01-25T11:49:57.991Z,3.33
2018-01-25T11:52:25.260Z,2.70
2018-01-25T11:54:52.504Z,2.47
2018-01-25T11:57:19.767Z,2.40
2018-01-25T11:59:47.019Z,2.80
2018-01-25T12:02:14.368Z,3.87
2018-01-25T12:04:41.663Z,3.13
2018-01-25T12:07:08.896Z,2.50
2018-01-25T12:09:36.249Z,3.10
2018-01-25T12:12:03.497Z,2.50
2018-01-25T12:14:30.750Z,5.47
2018-01-25T12:16:58.017Z,2.90
2018-01-25T12:19:25.270Z,2.57
2018-01-25T12:21:52.600Z,4.27
2018-01-25T12:24:19.804Z,3.07
2018-01-25T12:26:47.067Z,4.93
2018-01-25T12:29:14.337Z,2.40
2018-01-25T12:31:41.594Z,1.97
2018-01-25T12:34:08.868Z,3.70
2018-01-25T12:36:36.112Z,2.53
2018-01-25T12:39:03.392Z,1.73
2018-01-25T12:41:30.672Z,2.57
2018-01-25T12:43:57.947Z,2.30
2018-01-25T12:46:25.196Z,2.70
2018-01-25T12:48:52.464Z,1.93
2018-01-25T12:51:19.737Z,1.77
2018-01-25T12:53:47.088Z,2.07
2018-01-25T12:56:14.350Z,2.10
2018-01-25T12:58:41.615Z,1.93
2018-01-25T13:01:08.869Z,2.03
2018-01-25T13:03:36.144Z,2.00
2018-01-25T13:06:03.396Z,1.80
2018-01-25T13:08:30.645Z,1.67
2018-01-25T13:10:57.912Z,4.60
2018-01-25T13:13:25.220Z,2.50
2018-01-25T13:15:52.484Z,3.00
2018-01-25T13:18:19.732Z,2.27
2018-01-25T13:20:47.005Z,1.63
2018-01-25T13:23:15.162Z,1.30
2018-01-25T13:25:42.432Z,2.80
2018-01-25T13:28:09.686Z,1.60
2018-01-25T13:30:36.948Z,2.47
2018-01-25T13:33:10.040Z,1.50
2018-01-25T13:35:37.300Z,2.20
2018-01-25T13:38:04.552Z,2.10
2018-01-25T13:40:31.817Z,1.20
2018-01-25T13:42:59.132Z,2.23
2018-01-25T13:45:26.417Z,1.83
2018-01-25T13:47:53.736Z,1.97
2018-01-25T13:50:21.084Z,3.20
2018-01-25T13:52:48.332Z,2.27
2018-01-25T13:55:15.596Z,2.40
2018-01-25T13:57:42.847Z,2.23
2018-01-25T14:00:10.159Z,1.60
2018-01-25T14:02:37.403Z,2.50
2018-01-25T14:05:04.648Z,3.37
2018-01-25T14:07:32.120Z,3.07
2018-01-25T14:09:59.420Z,2.37
2018-01-25T14:12:26.780Z,2.10
2018-01-25T14:14:54.107Z,4.10
2018-01-25T14:17:22.132Z,2.30
2018-01-25T14:19:49.463Z,2.30
2018-01-25T14:22:16.724Z,3.53
2018-01-25T14:24:43.976Z,3.20
2018-01-25T14:27:11.325Z,2.77
2018-01-25T14:29:44.041Z,2.50
2018-01-25T14:32:11.303Z,2.60
2018-01-25T14:34:38.552Z,3.03
2018-01-25T14:37:05.815Z,2.90
2018-01-25T14:39:33.116Z,3.80
2018-01-25T14:42:00.476Z,4.73
2018-01-25T14:44:27.723Z,4.13
2018-01-25T14:46:54.992Z,2.87
2018-01-25T14:49:22.251Z,2.73
2018-01-25T14:51:49.516Z,3.43
2018-01-25T14:54:16.940Z,3.00
2018-01-25T14:56:44.318Z,3.73
2018-01-25T14:59:11.548Z,4.23
2018-01-25T15:01:38.797Z,4.93
2018-01-25T15:04:06.059Z,3.50
2018-01-25T15:06:33.312Z,3.73
2018-01-25T15:09:00.571Z,3.60
2018-01-25T15:11:27.824Z,2.97
2018-01-25T15:13:55.093Z,3.93
2018-01-25T15:16:22.345Z,3.60
2018-01-25T15:18:49.603Z,3.17
2018-01-25T15:21:16.864Z,3.00
2018-01-25T15:23:44.129Z,4.17
2018-01-25T15:26:11.402Z,4.03
2018-01-25T15:28:38.645Z,3.70
2018-01-25T15:31:05.906Z,3.90
2018-01-25T15:33:33.172Z,3.87
2018-01-25T15:36:00.424Z,5.10
2018-01-25T15:38:27.680Z,4.43
2018-01-25T15:40:54.952Z,6.70
2018-01-25T15:43:22.215Z,5.90
2018-01-25T15:45:49.495Z,6.20
2018-01-25T15:48:16.832Z,4.73
2018-01-25T15:50:44.187Z,7.80
2018-01-25T15:53:11.432Z,5.50
2018-01-25T15:55:38.708Z,5.70
2018-01-25T15:58:05.956Z,4.30
2018-01-25T16:00:33.307Z,4.33
2018-01-25T16:03:00.553Z,4.93
2018-01-25T16:05:27.859Z,5.50
2018-01-25T16:07:55.063Z,6.60
2018-01-25T16:10:22.336Z,7.23
2018-01-25T16:12:49.585Z,6.10
2018-01-25T16:15:16.916Z,6.00
2018-01-25T16:17:44.164Z,4.60
2018-01-25T16:20:11.441Z,5.93
2018-01-25T16:22:38.785Z,9.53
2018-01-25T16:25:06.062Z,6.33
2018-01-25T16:27:33.316Z,4.83
2018-01-25T16:30:00.576Z,4.60
2018-01-25T16:32:27.832Z,5.17
2018-01-25T16:34:55.075Z,4.63
2018-01-25T16:37:22.339Z,8.47
2018-01-25T16:39:49.588Z,8.43
2018-01-25T16:42:16.852Z,7.40
2018-01-25T16:44:44.096Z,6.33
2018-01-25T16:47:11.367Z,7.87
2018-01-25T16:49:38.682Z,11.67
2018-01-25T16:52:05.944Z,7.03
2018-01-25T16:54:33.192Z,9.83
2018-01-25T16:57:00.465Z,6.53
2018-01-25T16:59:28.669Z,7.97
2018-01-25T17:01:55.941Z,8.10
2018-01-25T17:04:23.188Z,8.70
2018-01-25T17:06:50.473Z,10.20
2018-01-25T17:09:17.725Z,11.90
2018-01-25T17:11:44.996Z,11.47
2018-01-25T17:14:12.248Z,9.43
2018-01-25T17:16:39.524Z,14.10
2018-01-25T17:19:06.844Z,11.70
2018-01-25T17:21:34.116Z,12.50
2018-01-25T17:24:01.448Z,10.50
2018-01-25T17:26:28.699Z,10.57
2018-01-25T17:28:55.968Z,10.73
2018-01-25T17:31:23.225Z,10.27
2018-01-25T17:33:50.507Z,10.87
2018-01-25T17:36:17.756Z,9.27
2018-01-25T17:38:45.075Z,11.20
2018-01-25T17:41:12.336Z,9.40
2018-01-25T17:43:39.592Z,9.93
2018-01-25T17:46:06.853Z,10.30
2018-01-25T17:48:34.117Z,14.30
2018-01-25T17:51:01.381Z,10.07
2018-01-25T17:53:28.648Z,10.07
2018-01-25T17:55:55.904Z,14.20
2018-01-25T17:58:23.200Z,9.03
2018-01-25T18:00:50.494Z,15.33
2018-01-25T18:03:17.728Z,8.80
2018-01-25T18:05:44.972Z,9.73
2018-01-25T18:08:12.232Z,8.67
2018-01-25T18:10:39.491Z,11.87
2018-01-25T18:13:06.758Z,5.07
2018-01-25T18:15:34.009Z,4.00
2018-01-25T18:18:01.289Z,3.53
2018-01-25T18:20:28.580Z,3.60
2018-01-25T18:22:55.828Z,1.70
2018-01-25T18:25:23.095Z,1.40
2018-01-25T18:27:50.735Z,1.67
2018-01-25T18:30:17.971Z,2.73
2018-01-25T18:32:45.398Z,2.60
2018-01-25T18:35:12.711Z,3.60
2018-01-25T18:37:39.966Z,1.53
2018-01-25T18:40:07.228Z,1.30
2018-01-25T18:42:34.476Z,2.03
2018-01-25T18:45:01.828Z,1.70
2018-01-25T18:47:29.755Z,4.90
2018-01-25T18:49:57.016Z,1.17
2018-01-25T18:52:24.269Z,1.23
2018-01-25T18:54:51.540Z,4.60
2018-01-25T18:57:18.836Z,2.23
2018-01-25T18:59:46.069Z,1.90
2018-01-25T19:02:13.331Z,2.50
2018-01-25T19:04:40.580Z,2.50
2018-01-25T19:07:07.867Z,1.40
2018-01-25T19:09:35.116Z,1.23
2018-01-25T19:12:02.439Z,1.80
2018-01-25T19:14:29.684Z,1.53
2018-01-25T19:16:56.988Z,1.98
2018-01-25T19:19:24.233Z,2.47
2018-01-25T19:21:51.504Z,1.20
2018-01-25T19:24:18.755Z,1.90
2018-01-25T19:26:46.024Z,1.03
2018-01-25T19:29:13.275Z,3.27
2018-01-25T19:31:40.545Z,1.73
2018-01-25T19:34:07.804Z,1.00
2018-01-25T19:36:35.072Z,2.17
2018-01-25T19:39:02.337Z,1.33
2018-01-25T19:41:29.586Z,0.90
2018-01-25T19:43:56.844Z,0.97
2018-01-25T19:46:24.092Z,0.80
2018-01-25T19:48:51.363Z,0.90
2018-01-25T19:51:18.616Z,2.60
2018-01-25T19:53:45.883Z,1.37
2018-01-25T19:56:13.128Z,2.47
2018-01-25T19:58:40.397Z,2.30
2018-01-25T20:01:07.640Z,1.50
2018-01-25T20:03:34.913Z,1.57
2018-01-25T20:06:02.170Z,2.07
2018-01-25T20:08:29.436Z,1.00
2018-01-25T20:10:56.689Z,2.27
2018-01-25T20:13:23.960Z,2.10
2018-01-25T20:15:51.208Z,1.57
2018-01-25T20:18:18.480Z,2.13
2018-01-25T20:20:45.733Z,1.20
2018-01-25T20:23:13.000Z,2.77
2018-01-25T20:25:40.253Z,2.23
2018-01-25T20:28:07.512Z,3.23
2018-01-25T20:30:34.755Z,1.07
2018-01-25T20:33:02.026Z,1.10
2018-01-25T20:35:29.274Z,1.73
2018-01-25T20:37:56.533Z,2.63
2018-01-25T20:40:23.784Z,7.30
2018-01-25T20:42:51.031Z,5.27
2018-01-25T20:45:18.301Z,1.10
2018-01-25T20:47:45.559Z,1.20
2018-01-25T20:50:12.828Z,2.83
2018-01-25T20:52:40.080Z,2.50
2018-01-25T20:55:07.347Z,1.87
2018-01-25T20:57:34.592Z,3.23
2018-01-25T21:00:01.863Z,2.90
2018-01-25T21:02:29.111Z,2.20
2018-01-25T21:04:56.390Z,1.67
2018-01-25T21:07:23.639Z,1.70
2018-01-25T21:09:50.909Z,1.53
2018-01-25T21:12:18.160Z,1.67
2018-01-25T21:14:45.432Z,2.23
2018-01-25T21:17:12.681Z,2.50
2018-01-25T21:19:39.934Z,4.60
2018-01-25T21:22:07.202Z,2.17
2018-01-25T21:24:34.443Z,2.37
2018-01-25T21:27:01.719Z,2.70
2018-01-25T21:29:28.968Z,3.13
2018-01-25T21:31:56.237Z,6.37
2018-01-25T21:34:23.544Z,2.53
2018-01-25T21:36:50.817Z,2.93
2018-01-25T21:39:18.064Z,2.20
2018-01-25T21:41:45.341Z,2.23
2018-01-25T21:44:12.591Z,5.93
2018-01-25T21:46:39.874Z,13.53
2018-01-25T21:49:07.124Z,3.70
2018-01-25T21:51:34.412Z,3.90
2018-01-25T21:54:01.655Z,3.40
2018-01-25T21:56:28.912Z,2.20
2018-01-25T21:58:56.192Z,2.40
2018-01-25T22:01:23.438Z,1.73
2018-01-25T22:03:50.713Z,1.67
2018-01-25T22:06:17.973Z,2.10
2018-01-25T22:08:45.235Z,5.03
2018-01-25T22:11:12.488Z,1.80
2018-01-25T22:13:39.758Z,1.80
2018-01-25T22:16:07.004Z,2.40
2018-01-25T22:18:34.272Z,2.60
2018-01-25T22:21:01.524Z,3.80
2018-01-25T22:23:28.796Z,3.67
2018-01-25T22:25:56.047Z,2.00
2018-01-25T22:28:23.313Z,2.10
2018-01-25T22:30:50.573Z,2.30
2018-01-25T22:33:17.841Z,2.67
2018-01-25T22:35:45.097Z,3.00
2018-01-25T22:38:12.360Z,2.00
2018-01-25T22:40:39.630Z,3.20
2018-01-25T22:43:06.883Z,1.67
2018-01-25T22:45:34.143Z,2.07
2018-01-25T22:48:01.400Z,2.60
2018-01-25T22:50:28.664Z,2.30
2018-01-25T22:52:55.915Z,1.30
2018-01-25T22:55:23.194Z,1.57
2018-01-25T22:57:50.616Z,1.60
2018-01-25T23:00:23.761Z,1.60
2018-01-25T23:02:51.005Z,1.93
2018-01-25T23:05:18.273Z,1.93
2018-01-25T23:07:45.620Z,1.63
2018-01-25T23:10:12.892Z,1.27
2018-01-25T23:12:40.139Z,1.30
2018-01-25T23:15:07.404Z,1.30
2018-01-25T23:17:34.648Z,4.10
2018-01-25T23:20:01.905Z,2.63
2018-01-25T23:22:29.176Z,1.40
2018-01-25T23:24:56.428Z,1.60
2018-01-25T23:27:23.696Z,1.77
2018-01-25T23:29:50.944Z,1.30
2018-01-25T23:32:18.218Z,1.63
2018-01-25T23:34:45.459Z,2.67
2018-01-25T23:37:12.732Z,1.57
2018-01-25T23:39:39.980Z,0.90
2018-01-25T23:42:07.332Z,1.10
2018-01-25T23:44:34.579Z,1.43
2018-01-25T23:47:01.874Z,2.37
2018-01-25T23:49:29.100Z,1.60
2018-01-25T23:51:56.363Z,1.60
2018-01-25T23:54:23.620Z,1.40
2018-01-25T23:56:50.890Z,3.67
2018-01-25T23:59:18.132Z,2.93
